createdAt,value
2023-04-14T00:00:07.000Z,92.74
2023-04-14T00:01:07.000Z,92.74
2023-04-14T00:02:07.000Z,92.74
2023-04-14T00:03:07.000Z,92.74
2023-04-14T00:04:07.000Z,92.74
2023-04-14T00:05:07.000Z,92.74
2023-04-14T00:06:07.000Z,92.85
2023-04-14T00:07:07.000Z,92.85
2023-04-14T00:08:07.000Z,92.85
2023-04-14T00:09:07.000Z,92.80
2023-04-14T00:10:07.000Z,92.70
2023-04-14T00:11:07.000Z,92.60
2023-04-14T00:12:07.000Z,92.60
2023-04-14T00:13:07.000Z,92.60
2023-04-14T00:14:07.000Z,92.50
2023-04-14T00:15:07.000Z,92.50
2023-04-14T00:16:07.000Z,92.60
2023-04-14T00:17:07.000Z,92.60
2023-04-14T00:18:07.000Z,92.70
2023-04-14T00:19:07.000Z,92.70
2023-04-14T00:20:07.000Z,92.70
2023-04-14T00:21:08.000Z,92.60
2023-04-14T00:22:08.000Z,92.60
2023-04-14T00:23:08.000Z,92.60
2023-04-14T00:24:08.000Z,92.46
2023-04-14T00:25:08.000Z,92.29
2023-04-14T00:26:08.000Z,92.25
2023-04-14T00:27:08.000Z,92.14
2023-04-14T00:28:08.000Z,92.14
2023-04-14T00:29:08.000Z,92.14
2023-04-14T00:30:08.000Z,92.14
2023-04-14T00:31:08.000Z,92.14
2023-04-14T00:32:08.000Z,92.04
2023-04-14T00:33:08.000Z,92.04
2023-04-14T00:34:08.000Z,92.04
2023-04-14T00:35:08.000Z,91.94
2023-04-14T00:36:08.000Z,91.98
2023-04-14T00:37:08.000Z,91.98
2023-04-14T00:38:08.000Z,92.08
2023-04-14T00:39:08.000Z,91.98
2023-04-14T00:40:08.000Z,91.98
2023-04-14T00:41:08.000Z,92.08
2023-04-14T00:42:08.000Z,92.40
2023-04-14T00:43:08.000Z,92.60
2023-04-14T00:44:08.000Z,92.80
2023-04-14T00:45:08.000Z,93.01
2023-04-14T00:46:08.000Z,93.01
2023-04-14T00:47:08.000Z,92.91
2023-04-14T00:48:08.000Z,93.01
2023-04-14T00:49:08.000Z,92.91
2023-04-14T00:50:08.000Z,92.91
2023-04-14T00:51:08.000Z,92.91
2023-04-14T00:52:08.000Z,92.91
2023-04-14T00:53:08.000Z,93.01
2023-04-14T00:54:08.000Z,93.01
2023-04-14T00:55:08.000Z,93.32
2023-04-14T00:56:08.000Z,93.37
2023-04-14T00:57:08.000Z,93.47
2023-04-14T00:58:08.000Z,93.47
2023-04-14T00:59:08.000Z,93.47
2023-04-14T01:00:08.000Z,93.47
2023-04-14T01:01:08.000Z,93.37
2023-04-14T01:02:08.000Z,93.37
2023-04-14T01:03:08.000Z,93.37
2023-04-14T01:04:08.000Z,93.37
2023-04-14T01:05:08.000Z,93.47
2023-04-14T01:06:08.000Z,93.47
2023-04-14T01:07:08.000Z,93.47
2023-04-14T01:08:08.000Z,93.47
2023-04-14T01:09:08.000Z,93.37
2023-04-14T01:10:08.000Z,93.32
2023-04-14T01:11:08.000Z,93.37
2023-04-14T01:12:09.000Z,93.37
2023-04-14T01:13:09.000Z,93.32
2023-04-14T01:14:09.000Z,93.26
2023-04-14T01:15:09.000Z,93.22
2023-04-14T01:16:09.000Z,93.12
2023-04-14T01:17:09.000Z,93.12
2023-04-14T01:18:09.000Z,93.12
2023-04-14T01:19:09.000Z,93.01
2023-04-14T01:20:09.000Z,93.01
2023-04-14T01:21:09.000Z,92.91
2023-04-14T01:22:09.000Z,92.91
2023-04-14T01:23:09.000Z,92.91
2023-04-14T01:24:09.000Z,92.80
2023-04-14T01:25:09.000Z,92.80
2023-04-14T01:26:09.000Z,92.80
2023-04-14T01:27:09.000Z,92.91
2023-04-14T01:28:09.000Z,92.91
2023-04-14T01:29:09.000Z,92.80
2023-04-14T01:30:09.000Z,92.91
2023-04-14T01:31:09.000Z,92.80
2023-04-14T01:32:09.000Z,92.80
2023-04-14T01:33:09.000Z,92.91
2023-04-14T01:34:09.000Z,92.91
2023-04-14T01:35:09.000Z,93.01
2023-04-14T01:36:09.000Z,92.91
2023-04-14T01:37:09.000Z,92.91
2023-04-14T01:38:09.000Z,92.95
2023-04-14T01:39:09.000Z,93.05
2023-04-14T01:40:09.000Z,93.05
2023-04-14T01:41:09.000Z,93.05
2023-04-14T01:42:09.000Z,93.01
2023-04-14T01:43:09.000Z,92.95
2023-04-14T01:44:09.000Z,92.95
2023-04-14T01:45:09.000Z,93.01
2023-04-14T01:46:09.000Z,93.01
2023-04-14T01:47:09.000Z,93.05
2023-04-14T01:48:09.000Z,93.05
2023-04-14T01:49:09.000Z,93.05
2023-04-14T01:50:09.000Z,93.16
2023-04-14T01:51:09.000Z,93.16
2023-04-14T01:52:09.000Z,93.16
2023-04-14T01:53:09.000Z,93.22
2023-04-14T01:54:09.000Z,93.16
2023-04-14T01:55:09.000Z,93.26
2023-04-14T01:56:09.000Z,93.26
2023-04-14T01:57:09.000Z,93.26
2023-04-14T01:58:09.000Z,93.26
2023-04-14T01:59:09.000Z,93.37
2023-04-14T02:00:09.000Z,93.37
2023-04-14T02:01:09.000Z,93.37
2023-04-14T02:02:09.000Z,93.47
2023-04-14T02:03:09.000Z,93.47
2023-04-14T02:04:09.000Z,93.47
2023-04-14T02:05:09.000Z,93.37
2023-04-14T02:06:09.000Z,93.26
2023-04-14T02:07:09.000Z,93.26
2023-04-14T02:08:09.000Z,93.26
2023-04-14T02:09:09.000Z,93.26
2023-04-14T02:10:09.000Z,93.05
2023-04-14T02:11:09.000Z,92.95
2023-04-14T02:12:10.000Z,92.95
2023-04-14T02:13:10.000Z,93.16
2023-04-14T02:14:10.000Z,93.26
2023-04-14T02:15:10.000Z,93.37
2023-04-14T02:16:10.000Z,93.26
2023-04-14T02:17:10.000Z,93.26
2023-04-14T02:18:10.000Z,93.16
2023-04-14T02:19:10.000Z,93.26
2023-04-14T02:20:10.000Z,93.26
2023-04-14T02:21:10.000Z,93.26
2023-04-14T02:22:10.000Z,93.37
2023-04-14T02:23:10.000Z,93.37
2023-04-14T02:24:10.000Z,93.37
2023-04-14T02:25:10.000Z,93.47
2023-04-14T02:26:10.000Z,93.57
2023-04-14T02:27:10.000Z,93.47
2023-04-14T02:28:10.000Z,93.37
2023-04-14T02:29:10.000Z,93.37
2023-04-14T02:30:10.000Z,93.37
2023-04-14T02:31:10.000Z,93.47
2023-04-14T02:32:10.000Z,93.47
2023-04-14T02:33:10.000Z,93.47
2023-04-14T02:34:10.000Z,93.57
2023-04-14T02:35:10.000Z,93.47
2023-04-14T02:36:10.000Z,93.47
2023-04-14T02:37:10.000Z,93.57
2023-04-14T02:38:10.000Z,93.57
2023-04-14T02:39:10.000Z,93.68
2023-04-14T02:40:10.000Z,93.68
2023-04-14T02:41:10.000Z,93.78
2023-04-14T02:42:10.000Z,93.78
2023-04-14T02:43:10.000Z,93.68
2023-04-14T02:44:10.000Z,93.78
2023-04-14T02:45:10.000Z,93.68
2023-04-14T02:46:10.000Z,93.57
2023-04-14T02:47:10.000Z,93.47
2023-04-14T02:48:10.000Z,93.57
2023-04-14T02:49:10.000Z,93.68
2023-04-14T02:50:10.000Z,93.68
2023-04-14T02:51:10.000Z,93.68
2023-04-14T02:52:10.000Z,93.78
2023-04-14T02:53:10.000Z,93.68
2023-04-14T02:54:10.000Z,93.57
2023-04-14T02:55:10.000Z,93.57
2023-04-14T02:56:10.000Z,93.68
2023-04-14T02:57:10.000Z,93.57
2023-04-14T02:58:10.000Z,93.57
2023-04-14T02:59:10.000Z,93.47
2023-04-14T03:00:10.000Z,93.57
2023-04-14T03:01:10.000Z,93.47
2023-04-14T03:02:10.000Z,93.57
2023-04-14T03:03:10.000Z,93.57
2023-04-14T03:04:10.000Z,93.78
2023-04-14T03:05:10.000Z,93.68
2023-04-14T03:06:10.000Z,93.68
2023-04-14T03:07:10.000Z,93.68
2023-04-14T03:08:10.000Z,93.82
2023-04-14T03:09:10.000Z,93.68
2023-04-14T03:10:10.000Z,93.82
2023-04-14T03:11:10.000Z,93.88
2023-04-14T03:12:10.000Z,93.98
2023-04-14T03:13:10.000Z,93.98
2023-04-14T03:14:10.000Z,93.98
2023-04-14T03:15:10.000Z,93.93
2023-04-14T03:16:10.000Z,94.03
2023-04-14T03:17:10.000Z,94.03
2023-04-14T03:18:10.000Z,94.13
2023-04-14T03:19:10.000Z,94.13
2023-04-14T03:20:11.000Z,94.13
2023-04-14T03:21:11.000Z,94.09
2023-04-14T03:22:11.000Z,94.44
2023-04-14T03:23:11.000Z,94.44
2023-04-14T03:24:11.000Z,94.44
2023-04-14T03:25:11.000Z,94.34
2023-04-14T03:26:11.000Z,94.44
2023-04-14T03:27:11.000Z,94.44
2023-04-14T03:28:11.000Z,94.34
2023-04-14T03:29:11.000Z,94.34
2023-04-14T03:30:11.000Z,94.44
2023-04-14T03:31:11.000Z,94.44
2023-04-14T03:32:11.000Z,94.34
2023-04-14T03:33:11.000Z,94.44
2023-04-14T03:34:11.000Z,94.44
2023-04-14T03:35:11.000Z,94.44
2023-04-14T03:36:11.000Z,94.44
2023-04-14T03:37:11.000Z,94.44
2023-04-14T03:38:11.000Z,94.44
2023-04-14T03:39:11.000Z,94.44
2023-04-14T03:40:11.000Z,94.44
2023-04-14T03:41:11.000Z,94.54
2023-04-14T03:42:11.000Z,94.65
2023-04-14T03:43:11.000Z,94.65
2023-04-14T03:44:11.000Z,94.65
2023-04-14T03:45:11.000Z,94.75
2023-04-14T03:46:11.000Z,94.85
2023-04-14T03:47:11.000Z,94.96
2023-04-14T03:48:11.000Z,94.96
2023-04-14T03:49:11.000Z,95.06
2023-04-14T03:50:11.000Z,95.17
2023-04-14T03:51:11.000Z,95.27
2023-04-14T03:52:11.000Z,95.31
2023-04-14T03:53:11.000Z,95.37
2023-04-14T03:54:11.000Z,95.37
2023-04-14T03:55:11.000Z,95.52
2023-04-14T03:56:11.000Z,95.52
2023-04-14T03:57:11.000Z,95.48
2023-04-14T03:58:11.000Z,95.52
2023-04-14T03:59:11.000Z,95.62
2023-04-14T04:00:11.000Z,95.73
2023-04-14T04:01:11.000Z,95.73
2023-04-14T04:02:11.000Z,95.73
2023-04-14T04:03:11.000Z,95.83
2023-04-14T04:04:11.000Z,95.83
2023-04-14T04:05:11.000Z,95.94
2023-04-14T04:06:11.000Z,95.94
2023-04-14T04:07:11.000Z,95.94
2023-04-14T04:08:11.000Z,96.03
2023-04-14T04:09:11.000Z,96.03
2023-04-14T04:10:11.000Z,96.03
2023-04-14T04:11:11.000Z,96.03
2023-04-14T04:12:12.000Z,96.03
2023-04-14T04:13:12.000Z,96.14
2023-04-14T04:14:12.000Z,96.24
2023-04-14T04:15:12.000Z,96.34
2023-04-14T04:16:12.000Z,96.34
2023-04-14T04:17:12.000Z,96.34
2023-04-14T04:18:12.000Z,96.45
2023-04-14T04:19:12.000Z,96.45
2023-04-14T04:20:12.000Z,96.45
2023-04-14T04:21:12.000Z,96.55
2023-04-14T04:22:12.000Z,96.55
2023-04-14T04:23:12.000Z,96.66
2023-04-14T04:24:12.000Z,96.66
2023-04-14T04:25:12.000Z,96.66
2023-04-14T04:26:12.000Z,96.76
2023-04-14T04:27:12.000Z,96.76
2023-04-14T04:28:12.000Z,96.76
2023-04-14T04:29:12.000Z,96.86
2023-04-14T04:30:12.000Z,96.86
2023-04-14T04:31:12.000Z,96.97
2023-04-14T04:32:12.000Z,96.97
2023-04-14T04:33:12.000Z,96.97
2023-04-14T04:34:12.000Z,96.97
2023-04-14T04:35:12.000Z,96.92
2023-04-14T04:36:12.000Z,96.97
2023-04-14T04:37:12.000Z,96.92
2023-04-14T04:38:12.000Z,97.07
2023-04-14T04:39:12.000Z,97.02
2023-04-14T04:40:12.000Z,97.02
2023-04-14T04:41:12.000Z,97.13
2023-04-14T04:42:12.000Z,97.13
2023-04-14T04:43:12.000Z,97.28
2023-04-14T04:44:12.000Z,97.23
2023-04-14T04:45:12.000Z,97.23
2023-04-14T04:46:12.000Z,97.28
2023-04-14T04:47:12.000Z,97.23
2023-04-14T04:48:12.000Z,97.23
2023-04-14T04:49:12.000Z,97.23
2023-04-14T04:50:12.000Z,97.23
2023-04-14T04:51:12.000Z,97.33
2023-04-14T04:52:12.000Z,97.33
2023-04-14T04:53:12.000Z,97.33
2023-04-14T04:54:12.000Z,97.33
2023-04-14T04:55:13.000Z,97.23
2023-04-14T04:56:13.000Z,97.23
2023-04-14T04:57:13.000Z,97.23
2023-04-14T04:58:13.000Z,97.13
2023-04-14T04:59:13.000Z,97.13
2023-04-14T05:00:13.000Z,97.13
2023-04-14T05:01:13.000Z,97.08
2023-04-14T05:02:13.000Z,97.08
2023-04-14T05:03:13.000Z,97.08
2023-04-14T05:04:13.000Z,97.08
2023-04-14T05:05:13.000Z,96.98
2023-04-14T05:06:13.000Z,97.08
2023-04-14T05:07:13.000Z,96.98
2023-04-14T05:08:13.000Z,96.98
2023-04-14T05:09:13.000Z,96.98
2023-04-14T05:10:13.000Z,96.98
2023-04-14T05:11:13.000Z,96.88
2023-04-14T05:12:13.000Z,96.98
2023-04-14T05:13:13.000Z,96.88
2023-04-14T05:14:13.000Z,96.98
2023-04-14T05:15:13.000Z,96.98
2023-04-14T05:16:13.000Z,96.98
2023-04-14T05:17:13.000Z,96.98
2023-04-14T05:18:13.000Z,96.98
2023-04-14T05:19:13.000Z,96.88
2023-04-14T05:20:13.000Z,96.98
2023-04-14T05:21:13.000Z,96.88
2023-04-14T05:22:13.000Z,96.98
2023-04-14T05:23:13.000Z,96.98
2023-04-14T05:24:13.000Z,96.98
2023-04-14T05:25:13.000Z,96.94
2023-04-14T05:26:13.000Z,96.83
2023-04-14T05:27:13.000Z,96.83
2023-04-14T05:28:13.000Z,96.83
2023-04-14T05:29:13.000Z,96.94
2023-04-14T05:30:13.000Z,97.04
2023-04-14T05:31:13.000Z,96.94
2023-04-14T05:32:13.000Z,97.04
2023-04-14T05:33:13.000Z,97.04
2023-04-14T05:34:13.000Z,96.94
2023-04-14T05:35:13.000Z,97.04
2023-04-14T05:36:13.000Z,97.04
2023-04-14T05:37:13.000Z,97.04
2023-04-14T05:38:13.000Z,96.94
2023-04-14T05:39:13.000Z,96.94
2023-04-14T05:40:13.000Z,96.73
2023-04-14T05:41:14.000Z,96.62
2023-04-14T05:42:14.000Z,96.62
2023-04-14T05:43:14.000Z,96.62
2023-04-14T05:44:14.000Z,96.73
2023-04-14T05:45:14.000Z,96.69
2023-04-14T05:46:14.000Z,96.58
2023-04-14T05:47:14.000Z,96.58
2023-04-14T05:48:14.000Z,96.37
2023-04-14T05:49:14.000Z,96.37
2023-04-14T05:50:14.000Z,96.37
2023-04-14T05:51:14.000Z,96.37
2023-04-14T05:52:14.000Z,96.27
2023-04-14T05:53:14.000Z,96.17
2023-04-14T05:54:14.000Z,96.17
2023-04-14T05:55:14.000Z,96.37
2023-04-14T05:56:14.000Z,96.17
2023-04-14T05:57:14.000Z,95.55
2023-04-14T05:58:14.000Z,95.86
2023-04-14T05:59:14.000Z,96.06
2023-04-14T06:00:14.000Z,96.17
2023-04-14T06:01:14.000Z,96.02
2023-04-14T06:02:14.000Z,96.06
2023-04-14T06:03:14.000Z,95.92
2023-04-14T06:04:14.000Z,96.02
2023-04-14T06:05:14.000Z,95.61
2023-04-14T06:06:14.000Z,95.40
2023-04-14T06:07:14.000Z,95.50
2023-04-14T06:08:14.000Z,95.61
2023-04-14T06:09:14.000Z,96.02
2023-04-14T06:10:14.000Z,95.92
2023-04-14T06:11:14.000Z,95.81
2023-04-14T06:12:14.000Z,95.81
2023-04-14T06:13:14.000Z,96.12
2023-04-14T06:14:14.000Z,96.12
2023-04-14T06:15:14.000Z,95.71
2023-04-14T06:16:14.000Z,95.40
2023-04-14T06:17:14.000Z,95.71
2023-04-14T06:18:14.000Z,95.92
2023-04-14T06:19:14.000Z,95.71
2023-04-14T06:20:14.000Z,95.40
2023-04-14T06:21:14.000Z,95.50
2023-04-14T06:22:14.000Z,95.50
2023-04-14T06:23:14.000Z,95.81
2023-04-14T06:24:14.000Z,95.61
2023-04-14T06:25:14.000Z,95.56
2023-04-14T06:26:14.000Z,96.02
2023-04-14T06:27:14.000Z,95.87
2023-04-14T06:28:14.000Z,95.92
2023-04-14T06:29:14.000Z,95.67
2023-04-14T06:30:14.000Z,96.08
2023-04-14T06:31:14.000Z,95.98
2023-04-14T06:32:14.000Z,95.77
2023-04-14T06:33:14.000Z,95.77
2023-04-14T06:34:14.000Z,95.25
2023-04-14T06:35:15.000Z,94.95
2023-04-14T06:36:15.000Z,94.84
2023-04-14T06:37:15.000Z,94.43
2023-04-14T06:38:15.000Z,94.64
2023-04-14T06:39:15.000Z,94.59
2023-04-14T06:40:15.000Z,95.10
2023-04-14T06:41:15.000Z,94.90
2023-04-14T06:42:15.000Z,94.90
2023-04-14T06:43:15.000Z,94.90
2023-04-14T06:44:15.000Z,95.31
2023-04-14T06:45:15.000Z,95.31
2023-04-14T06:46:15.000Z,95.21
2023-04-14T06:47:15.000Z,95.21
2023-04-14T06:48:15.000Z,95.31
2023-04-14T06:49:15.000Z,95.42
2023-04-14T06:50:15.000Z,95.93
2023-04-14T06:51:15.000Z,95.52
2023-04-14T06:52:15.000Z,95.73
2023-04-14T06:53:15.000Z,95.52
2023-04-14T06:54:15.000Z,95.62
2023-04-14T06:55:15.000Z,96.03
2023-04-14T06:56:15.000Z,96.24
2023-04-14T06:57:15.000Z,95.99
2023-04-14T06:58:15.000Z,95.62
2023-04-14T06:59:15.000Z,95.73
2023-04-14T07:00:15.000Z,96.09
2023-04-14T07:01:15.000Z,96.50
2023-04-14T07:02:15.000Z,96.71
2023-04-14T07:03:15.000Z,96.61
2023-04-14T07:04:15.000Z,96.30
2023-04-14T07:05:15.000Z,96.09
2023-04-14T07:06:15.000Z,95.78
2023-04-14T07:07:15.000Z,95.68
2023-04-14T07:08:15.000Z,95.27
2023-04-14T07:09:15.000Z,95.74
2023-04-14T07:10:15.000Z,95.68
2023-04-14T07:11:15.000Z,95.06
2023-04-14T07:12:15.000Z,95.27
2023-04-14T07:13:15.000Z,95.89
2023-04-14T07:14:15.000Z,95.37
2023-04-14T07:15:15.000Z,95.02
2023-04-14T07:16:15.000Z,95.02
2023-04-14T07:17:15.000Z,95.17
2023-04-14T07:18:15.000Z,94.76
2023-04-14T07:19:15.000Z,94.85
2023-04-14T07:20:15.000Z,94.85
2023-04-14T07:21:15.000Z,95.06
2023-04-14T07:22:15.000Z,94.96
2023-04-14T07:23:15.000Z,94.96
2023-04-14T07:24:15.000Z,95.12
2023-04-14T07:25:15.000Z,94.92
2023-04-14T07:26:15.000Z,94.71
2023-04-14T07:27:15.000Z,94.81
2023-04-14T07:28:15.000Z,95.12
2023-04-14T07:29:15.000Z,95.02
2023-04-14T07:30:15.000Z,94.92
2023-04-14T07:31:15.000Z,94.51
2023-04-14T07:32:15.000Z,93.99
2023-04-14T07:33:15.000Z,94.20
2023-04-14T07:34:15.000Z,93.84
2023-04-14T07:35:15.000Z,93.64
2023-04-14T07:36:15.000Z,93.68
2023-04-14T07:37:15.000Z,93.74
2023-04-14T07:38:15.000Z,93.84
2023-04-14T07:39:15.000Z,93.74
2023-04-14T07:40:15.000Z,93.95
2023-04-14T07:41:15.000Z,93.33
2023-04-14T07:42:15.000Z,93.33
2023-04-14T07:43:15.000Z,93.23
2023-04-14T07:44:15.000Z,92.82
2023-04-14T07:45:15.000Z,92.61
2023-04-14T07:46:15.000Z,93.23
2023-04-14T07:47:15.000Z,93.33
2023-04-14T07:48:15.000Z,92.92
2023-04-14T07:49:15.000Z,92.50
2023-04-14T07:50:15.000Z,93.12
2023-04-14T07:51:15.000Z,93.54
2023-04-14T07:52:15.000Z,93.90
2023-04-14T07:53:15.000Z,93.90
2023-04-14T07:54:15.000Z,93.70
2023-04-14T07:55:15.000Z,93.08
2023-04-14T07:56:15.000Z,93.39
2023-04-14T07:57:15.000Z,93.80
2023-04-14T07:58:15.000Z,93.70
2023-04-14T07:59:15.000Z,93.49
2023-04-14T08:00:15.000Z,93.18
2023-04-14T08:01:15.000Z,92.77
2023-04-14T08:02:15.000Z,92.97
2023-04-14T08:03:15.000Z,93.18
2023-04-14T08:04:15.000Z,92.97
2023-04-14T08:05:15.000Z,92.77
2023-04-14T08:06:15.000Z,92.97
2023-04-14T08:07:15.000Z,93.29
2023-04-14T08:08:15.000Z,93.39
2023-04-14T08:09:15.000Z,93.18
2023-04-14T08:10:15.000Z,92.97
2023-04-14T08:11:15.000Z,92.42
2023-04-14T08:12:15.000Z,92.93
2023-04-14T08:13:15.000Z,92.83
2023-04-14T08:14:15.000Z,93.24
2023-04-14T08:15:15.000Z,92.11
2023-04-14T08:16:15.000Z,91.39
2023-04-14T08:17:15.000Z,92.32
2023-04-14T08:18:15.000Z,93.55
2023-04-14T08:19:15.000Z,92.83
2023-04-14T08:20:15.000Z,92.58
2023-04-14T08:21:15.000Z,91.97
2023-04-14T08:22:15.000Z,92.17
2023-04-14T08:23:15.000Z,92.27
2023-04-14T08:24:15.000Z,91.35
2023-04-14T08:25:15.000Z,91.35
2023-04-14T08:26:15.000Z,90.73
2023-04-14T08:27:15.000Z,91.51
2023-04-14T08:28:15.000Z,92.13
2023-04-14T08:29:15.000Z,91.00
2023-04-14T08:30:15.000Z,91.00
2023-04-14T08:37:34.000Z,88.84
2023-04-14T08:37:34.000Z,89.15
2023-04-14T08:38:34.000Z,88.95
2023-04-14T08:39:34.000Z,89.15
2023-04-14T08:40:34.000Z,89.97
2023-04-14T08:41:34.000Z,88.95
2023-04-14T08:42:33.000Z,88.84
2023-04-14T08:43:33.000Z,89.60
2023-04-14T08:44:33.000Z,90.12
2023-04-14T08:45:33.000Z,90.80
2023-04-14T08:46:33.000Z,90.59
2023-04-14T08:47:33.000Z,90.89
2023-04-14T08:48:33.000Z,90.80
2023-04-14T08:49:33.000Z,89.46
2023-04-14T08:50:33.000Z,88.84
2023-04-14T08:51:33.000Z,88.02
2023-04-14T08:52:33.000Z,88.02
2023-04-14T08:53:33.000Z,88.74
2023-04-14T08:54:33.000Z,90.08
2023-04-14T08:55:33.000Z,89.46
2023-04-14T08:56:33.000Z,89.66
2023-04-14T08:57:33.000Z,89.56
2023-04-14T08:58:33.000Z,89.15
2023-04-14T08:59:33.000Z,89.76
2023-04-14T09:00:33.000Z,90.28
2023-04-14T09:01:33.000Z,89.93
2023-04-14T09:02:33.000Z,89.83
2023-04-14T09:03:33.000Z,89.31
2023-04-14T09:04:33.000Z,89.11
2023-04-14T09:05:33.000Z,89.31
2023-04-14T09:07:51.000Z,88.39
2023-04-14T09:07:51.000Z,88.90
2023-04-14T09:08:51.000Z,89.72
2023-04-14T09:09:51.000Z,89.72
2023-04-14T09:10:51.000Z,87.77
2023-04-14T09:11:51.000Z,88.53
2023-04-14T09:12:51.000Z,89.93
2023-04-14T09:13:51.000Z,90.65
2023-04-14T09:14:51.000Z,89.42
2023-04-14T09:15:51.000Z,88.29
2023-04-14T09:16:51.000Z,87.57
2023-04-14T09:17:51.000Z,88.29
2023-04-14T09:18:51.000Z,88.56
2023-04-14T09:19:51.000Z,88.66
2023-04-14T09:20:51.000Z,87.79
2023-04-14T09:21:51.000Z,86.46
2023-04-14T09:22:51.000Z,87.18
2023-04-14T09:23:51.000Z,87.79
2023-04-14T09:24:51.000Z,86.36
2023-04-14T09:25:51.000Z,86.77
2023-04-14T09:26:51.000Z,86.98
2023-04-14T09:27:51.000Z,86.63
2023-04-14T09:28:51.000Z,84.17
2023-04-14T09:29:51.000Z,83.45
2023-04-14T09:30:51.000Z,83.14
2023-04-14T09:31:51.000Z,83.65
2023-04-14T09:32:51.000Z,82.22
2023-04-14T09:33:51.000Z,83.25
2023-04-14T09:34:51.000Z,83.92
2023-04-14T09:35:51.000Z,82.90
2023-04-14T09:36:51.000Z,83.82
2023-04-14T09:37:51.000Z,83.00
2023-04-14T09:38:51.000Z,82.45
2023-04-14T09:39:51.000Z,81.15
2023-04-14T09:40:51.000Z,81.01
2023-04-14T09:41:51.000Z,81.12
2023-04-14T09:42:51.000Z,81.01
2023-04-14T09:43:51.000Z,81.43
2023-04-14T09:44:51.000Z,81.43
2023-04-14T09:45:51.000Z,82.04
2023-04-14T09:46:51.000Z,83.98
2023-04-14T09:47:51.000Z,81.84
2023-04-14T09:48:51.000Z,81.22
2023-04-14T09:49:51.000Z,80.81
2023-04-14T09:50:51.000Z,81.43
2023-04-14T09:51:51.000Z,83.37
2023-04-14T09:52:51.000Z,84.66
2023-04-14T09:53:51.000Z,81.90
2023-04-14T09:54:51.000Z,81.70
2023-04-14T09:55:51.000Z,82.86
2023-04-14T10:03:08.000Z,82.55
2023-04-14T10:03:08.000Z,83.47
2023-04-14T10:04:08.000Z,83.27
2023-04-14T10:05:08.000Z,84.19
2023-04-14T10:06:08.000Z,83.72
2023-04-14T10:13:25.000Z,82.14
2023-04-14T10:13:25.000Z,86.04
2023-04-14T10:14:25.000Z,82.55
2023-04-14T10:15:25.000Z,83.37
2023-04-14T10:16:25.000Z,83.88
2023-04-14T10:17:25.000Z,82.35
2023-04-14T10:18:25.000Z,83.06
2023-04-14T10:19:25.000Z,81.94
2023-04-14T10:20:25.000Z,82.18
2023-04-14T10:21:25.000Z,83.10
2023-04-14T10:34:00.000Z,89.17
2023-04-14T10:34:00.000Z,89.48
2023-04-14T10:35:00.000Z,89.37
2023-04-14T10:36:00.000Z,88.86
2023-04-14T10:37:00.000Z,89.58
2023-04-14T10:38:00.000Z,89.64
2023-04-14T10:39:00.000Z,88.72
2023-04-14T10:40:00.000Z,88.21
2023-04-14T10:41:00.000Z,90.62
2023-04-14T10:42:00.000Z,88.68
2023-04-14T10:43:00.000Z,88.06
2023-04-14T10:44:00.000Z,89.56
2023-04-14T10:45:00.000Z,90.79
2023-04-14T10:46:00.000Z,89.76
2023-04-14T10:47:00.000Z,87.51
2023-04-14T10:48:00.000Z,87.34
2023-04-14T10:49:00.000Z,87.96
2023-04-14T10:50:00.000Z,89.50
2023-04-14T10:51:00.000Z,88.51
2023-04-14T10:52:00.000Z,88.82
2023-04-14T10:53:00.000Z,90.05
2023-04-14T10:54:00.000Z,91.18
2023-04-14T10:55:00.000Z,91.86
2023-04-14T10:56:00.000Z,92.47
2023-04-14T10:57:00.000Z,91.35
2023-04-14T11:04:17.000Z,90.67
2023-04-14T11:04:17.000Z,89.39
2023-04-14T11:05:17.000Z,88.92
2023-04-14T11:06:17.000Z,90.09
2023-04-14T11:07:17.000Z,91.02
2023-04-14T11:08:17.000Z,90.91
2023-04-14T11:09:17.000Z,90.91
2023-04-14T11:10:18.000Z,91.12
2023-04-14T11:11:18.000Z,91.63
2023-04-14T11:12:18.000Z,92.60
2023-04-14T11:19:36.000Z,94.11
2023-04-14T11:19:36.000Z,93.02
2023-04-14T11:20:36.000Z,92.36
2023-04-14T11:21:36.000Z,91.18
2023-04-14T11:22:36.000Z,90.93
2023-04-14T11:23:36.000Z,90.62
2023-04-14T11:24:36.000Z,90.83
2023-04-14T11:25:36.000Z,90.52
2023-04-14T11:26:36.000Z,87.90
2023-04-14T11:27:36.000Z,85.74
2023-04-14T11:28:36.000Z,87.79
2023-04-14T11:29:36.000Z,86.77
2023-04-14T11:30:36.000Z,87.63
2023-04-14T11:31:36.000Z,87.32
2023-04-14T11:32:36.000Z,86.40
2023-04-14T11:33:36.000Z,88.66
2023-04-14T11:34:36.000Z,87.43
2023-04-14T11:35:36.000Z,88.45
2023-04-14T11:36:36.000Z,90.67
2023-04-14T11:37:36.000Z,90.46
2023-04-14T11:38:36.000Z,89.33
2023-04-14T11:39:36.000Z,89.09
2023-04-14T11:40:36.000Z,88.98
2023-04-14T11:41:36.000Z,89.70
2023-04-14T11:42:36.000Z,87.65
2023-04-14T11:43:36.000Z,89.19
2023-04-14T11:44:36.000Z,86.01
2023-04-14T11:45:36.000Z,88.68
2023-04-14T11:46:36.000Z,87.34
2023-04-14T11:47:36.000Z,87.96
2023-04-14T11:48:36.000Z,89.19
2023-04-14T11:49:36.000Z,86.83
2023-04-14T11:50:36.000Z,85.39
2023-04-14T11:51:36.000Z,86.11
2023-04-14T11:52:36.000Z,87.45
2023-04-14T11:53:36.000Z,86.52
2023-04-14T11:54:36.000Z,87.45
2023-04-14T11:55:36.000Z,88.02
2023-04-14T11:56:36.000Z,85.46
2023-04-14T11:57:36.000Z,85.77
2023-04-14T11:58:36.000Z,86.85
2023-04-14T11:59:36.000Z,87.98
2023-04-14T12:00:36.000Z,87.06
2023-04-14T12:01:36.000Z,84.80
2023-04-14T12:02:36.000Z,86.65
2023-04-14T12:09:53.000Z,87.90
2023-04-14T12:09:53.000Z,85.85
2023-04-14T12:10:53.000Z,85.85
2023-04-14T12:11:53.000Z,82.27
2023-04-14T12:12:53.000Z,84.11
2023-04-14T12:20:10.000Z,81.62
2023-04-14T12:20:10.000Z,80.49
2023-04-14T12:21:10.000Z,80.22
2023-04-14T12:22:10.000Z,79.50
2023-04-14T12:23:10.000Z,80.98
2023-04-14T12:30:28.000Z,81.18
2023-04-14T12:30:28.000Z,80.98
2023-04-14T12:31:28.000Z,83.64
2023-04-14T12:32:28.000Z,83.64
2023-04-14T12:33:28.000Z,83.47
2023-04-14T12:34:28.000Z,82.76
2023-04-14T12:35:28.000Z,84.23
2023-04-14T12:36:28.000Z,85.05
2023-04-14T12:37:28.000Z,84.95
2023-04-14T12:38:28.000Z,84.17
2023-04-14T12:39:28.000Z,85.87
2023-04-14T12:40:28.000Z,87.04
2023-04-14T12:41:28.000Z,87.41
2023-04-14T12:42:28.000Z,86.52
2023-04-14T12:43:28.000Z,86.93
2023-04-14T12:44:28.000Z,86.42
2023-04-14T12:45:28.000Z,86.22
2023-04-14T12:46:28.000Z,86.52
2023-04-14T12:47:28.000Z,86.73
2023-04-14T12:48:28.000Z,86.73
2023-04-14T12:49:28.000Z,86.63
2023-04-14T12:50:28.000Z,86.01
2023-04-14T12:51:28.000Z,86.36
2023-04-14T12:52:28.000Z,86.98
2023-04-14T12:53:28.000Z,88.31
2023-04-14T12:54:28.000Z,89.43
2023-04-14T12:55:28.000Z,88.62
2023-04-14T12:56:28.000Z,89.54
2023-04-14T12:57:28.000Z,89.03
2023-04-14T12:58:28.000Z,90.05
2023-04-14T12:59:28.000Z,89.13
2023-04-14T13:00:28.000Z,87.70
2023-04-14T13:01:28.000Z,88.92
2023-04-14T13:02:28.000Z,89.90
2023-04-14T13:03:28.000Z,90.11
2023-04-14T13:10:47.000Z,82.59
2023-04-14T13:10:47.000Z,82.12
2023-04-14T13:11:47.000Z,83.92
2023-04-14T13:12:47.000Z,82.18
2023-04-14T13:13:47.000Z,82.08
2023-04-14T13:21:04.000Z,82.14
2023-04-14T13:21:04.000Z,82.86
2023-04-14T13:22:04.000Z,83.23
2023-04-14T13:23:04.000Z,81.01
2023-04-14T13:24:04.000Z,81.32
2023-04-14T13:31:22.000Z,80.36
2023-04-14T13:31:22.000Z,79.24
2023-04-14T13:32:22.000Z,80.67
2023-04-14T13:33:22.000Z,83.33
2023-04-14T13:34:22.000Z,83.03
2023-04-14T13:35:22.000Z,80.98
2023-04-14T13:36:22.000Z,82.71
2023-04-14T13:37:22.000Z,83.03
2023-04-14T13:38:22.000Z,81.29
2023-04-14T13:39:22.000Z,81.65
2023-04-14T13:40:22.000Z,80.88
2023-04-14T13:41:22.000Z,82.10
2023-04-14T13:42:22.000Z,82.17
2023-04-14T13:43:22.000Z,81.08
2023-04-14T13:44:22.000Z,80.16
2023-04-14T13:45:22.000Z,81.90
2023-04-14T13:46:22.000Z,81.32
2023-04-14T13:47:22.000Z,81.73
2023-04-14T13:48:22.000Z,82.82
2023-04-14T13:49:22.000Z,81.22
2023-04-14T13:50:22.000Z,80.60
2023-04-14T13:51:22.000Z,79.89
2023-04-14T13:52:22.000Z,81.12
2023-04-14T13:53:22.000Z,79.93
2023-04-14T13:54:22.000Z,81.98
2023-04-14T13:55:22.000Z,81.05
2023-04-14T13:56:22.000Z,81.52
2023-04-14T13:57:22.000Z,80.95
2023-04-14T13:58:22.000Z,81.22
2023-04-14T13:59:22.000Z,81.63
2023-04-14T14:00:22.000Z,81.73
2023-04-14T14:01:22.000Z,82.14